Time;durP1;ratioP1;P1;durP2;ratioP2;P2;SDS_P1;SDS_P2;PMS_P1;PMS_P2;Temp;Humidity;BMP_temperature;BMP_pressure;BME280_temperature;BME280_humidity;BME280_pressure;Samples;Min_cycle;Max_cycle;Signal;HPM_P1;HPM_P2
2020/12/13 00:02:58;;;;;;;24.77;15.83;;;;;;;1.09;86.19;98757.84;516829;1095;65646;-70
2020/12/13 00:13:02;;;;;;;21.50;15.07;;;;;;;1.12;86.81;98765.47;517266;1097;65157;-69
2020/12/13 00:23:06;;;;;;;26.93;14.63;;;;;;;1.07;86.32;98770.81;517019;1095;65232;-69
2020/12/13 00:33:11;;;;;;;21.30;14.40;;;;;;;1.06;86.66;98771.72;516939;1095;65656;-69
2020/12/13 00:43:15;;;;;;;23.00;14.33;;;;;;;1.11;86.53;98781.89;516368;1096;65175;-69
2020/12/13 00:53:19;;;;;;;20.47;15.67;;;;;;;1.08;86.22;98785.42;517126;1095;65159;-70
2020/12/13 01:03:23;;;;;;;22.33;15.97;;;;;;;1.11;86.71;98787.06;517075;1095;65182;-70
2020/12/13 01:13:27;;;;;;;26.40;14.97;;;;;;;1.14;86.35;98797.28;516986;1097;65236;-70
2020/12/13 01:23:36;;;;;;;28.10;17.30;;;;;;;1.23;85.99;98802.11;517273;1095;65287;-70
2020/12/13 01:33:40;;;;;;;19.77;13.10;;;;;;;1.24;86.03;98805.55;517138;1095;65201;-69
2020/12/13 01:43:55;;;;;;;24.67;16.43;;;;;;;1.28;86.37;98795.94;517112;1095;65159;-69
2020/12/13 01:54:01;;;;;;;20.33;13.07;;;;;;;1.29;86.08;98806.20;517030;1095;65300;-70
2020/12/13 02:04:07;;;;;;;24.20;15.53;;;;;;;1.30;86.39;98797.54;517114;1095;65178;-69
2020/12/13 02:14:12;;;;;;;21.33;13.93;;;;;;;1.24;85.87;98796.03;517317;1095;65175;-70
2020/12/13 02:24:17;;;;;;;24.97;13.30;;;;;;;1.30;85.62;98807.06;517370;1095;65232;-70
2020/12/13 02:34:21;;;;;;;19.83;12.50;;;;;;;1.19;85.50;98815.21;517442;1095;65249;-70
2020/12/13 02:44:26;;;;;;;19.97;13.17;;;;;;;1.10;85.79;98813.83;517168;1097;65579;-71
2020/12/13 02:54:30;;;;;;;20.97;12.93;;;;;;;1.07;85.69;98819.13;519419;1095;65178;-70
2020/12/13 03:04:34;;;;;;;17.93;11.40;;;;;;;0.97;86.15;98829.80;519813;1095;65153;-69
2020/12/13 03:14:38;;;;;;;18.95;12.30;;;;;;;1.03;85.77;98835.63;517446;1095;65210;-71
2020/12/13 03:24:42;;;;;;;20.73;13.33;;;;;;;1.05;85.68;98829.51;517386;1095;65238;-70
2020/12/13 03:34:46;;;;;;;20.67;12.23;;;;;;;1.03;85.91;98848.55;517229;1095;65166;-70
2020/12/13 03:44:50;;;;;;;20.43;11.73;;;;;;;1.01;85.92;98853.80;517309;1090;65163;-71
2020/12/13 03:54:54;;;;;;;27.50;17.77;;;;;;;1.03;85.76;98857.17;517525;1095;65181;-70
2020/12/13 04:04:58;;;;;;;25.23;13.90;;;;;;;1.15;85.62;98866.20;517485;1090;65255;-69
2020/12/13 04:15:03;;;;;;;26.40;17.97;;;;;;;1.15;85.53;98868.78;517397;1095;65314;-70
2020/12/13 04:25:08;;;;;;;26.03;14.93;;;;;;;1.07;85.55;98868.25;517780;1095;65650;-69
2020/12/13 04:35:13;;;;;;;28.90;15.53;;;;;;;1.07;85.93;98863.91;517438;1095;65652;-70
2020/12/13 04:45:18;;;;;;;26.87;15.77;;;;;;;1.06;85.74;98869.15;517306;1095;65182;-70
2020/12/13 04:55:24;;;;;;;24.70;13.40;;;;;;;1.09;85.48;98880.20;517550;1095;65598;-71
2020/12/13 05:05:28;;;;;;;26.93;17.63;;;;;;;1.03;86.13;98880.44;517510;1090;65330;-70
2020/12/13 05:15:34;;;;;;;27.83;17.77;;;;;;;1.02;85.95;98893.41;517477;1095;65226;-70
2020/12/13 05:25:40;;;;;;;28.93;18.03;;;;;;;1.01;85.87;98900.34;517622;1095;65150;-70
2020/12/13 05:35:44;;;;;;;28.97;17.70;;;;;;;0.97;85.90;98909.94;517519;1097;65232;-71
2020/12/13 05:56:10;;;;;;;31.33;18.40;;;;;;;0.94;86.51;98927.30;517397;1095;65291;-70
2020/12/13 06:06:20;;;;;;;26.63;15.43;;;;;;;0.91;86.31;98933.41;517383;1095;65847;-70
2020/12/13 06:16:25;;;;;;;23.90;14.63;;;;;;;0.85;86.50;98951.73;517386;1090;65143;-70
2020/12/13 06:26:30;;;;;;;23.03;13.47;;;;;;;0.79;86.65;98952.78;517277;1090;65607;-71
2020/12/13 06:36:35;;;;;;;26.37;17.43;;;;;;;0.74;86.49;98953.84;517140;1095;65174;-69
2020/12/13 06:46:42;;;;;;;26.53;15.43;;;;;;;0.71;85.98;98972.87;517375;1095;65163;-70
2020/12/13 06:56:47;;;;;;;19.52;14.43;;;;;;;0.71;87.08;98982.38;517621;1095;65515;-71
2020/12/13 07:06:57;;;;;;;24.07;14.60;;;;;;;0.61;86.34;99008.52;517658;1095;65256;-69
2020/12/13 07:17:04;;;;;;;26.73;15.17;;;;;;;0.62;86.76;99015.38;517135;1097;65173;-71
2020/12/13 07:27:09;;;;;;;25.53;17.00;;;;;;;0.65;86.78;99017.02;517008;1097;65152;-70
2020/12/13 07:37:18;;;;;;;30.47;16.67;;;;;;;0.67;86.63;99022.98;517194;1095;65172;-70
2020/12/13 07:47:22;;;;;;;23.30;15.70;;;;;;;0.78;87.29;99041.56;517555;1095;65233;-70
2020/12/13 07:57:26;;;;;;;25.73;16.57;;;;;;;0.88;86.94;99043.85;517415;1095;65259;-70
2020/12/13 08:07:30;;;;;;;29.17;16.77;;;;;;;0.93;86.70;99049.70;517714;1095;65574;-70
2020/12/13 08:17:35;;;;;;;24.77;15.43;;;;;;;0.82;86.18;99058.65;517055;1095;65252;-70
2020/12/13 08:27:45;;;;;;;27.37;18.82;;;;;;;0.84;86.45;99069.78;507736;1090;10001660;-70
2020/12/13 08:37:55;;;;;;;21.93;15.20;;;;;;;0.81;86.67;99087.16;516443;1098;65189;-70
2020/12/13 08:48:01;;;;;;;27.10;16.20;;;;;;;0.76;86.19;99095.05;517668;1090;65421;-70
2020/12/13 08:58:06;;;;;;;22.10;13.87;;;;;;;0.89;86.43;99103.23;517571;1097;65189;-69
2020/12/13 09:08:10;;;;;;;25.00;15.13;;;;;;;0.97;86.75;99108.16;516935;1090;65284;-70
2020/12/13 09:18:14;;;;;;;25.27;14.53;;;;;;;1.04;86.83;99116.56;516515;1097;65712;-70
2020/12/13 09:28:18;;;;;;;26.73;15.33;;;;;;;0.97;86.62;99105.57;516576;1097;65188;-70
2020/12/13 09:38:23;;;;;;;24.80;15.77;;;;;;;1.00;86.41;99118.42;516980;1095;65181;-70
2020/12/13 09:48:27;;;;;;;23.73;14.33;;;;;;;0.98;86.56;99104.67;516844;1090;65211;-69
2020/12/13 09:58:33;;;;;;;25.67;16.77;;;;;;;1.03;86.83;99104.53;516858;1097;65467;-72
2020/12/13 10:19:05;;;;;;;22.17;14.60;;;;;;;0.93;86.13;99114.33;516797;1090;65159;-74
2020/12/13 10:29:10;;;;;;;22.40;14.00;;;;;;;0.96;86.41;99109.91;516602;1090;65179;-63
2020/12/13 10:39:19;;;;;;;26.30;14.53;;;;;;;1.01;86.61;99114.08;517272;1095;65178;-62
2020/12/13 10:49:23;;;;;;;20.87;15.03;;;;;;;1.11;86.96;99116.33;517350;1090;65233;-61
2020/12/13 10:59:27;;;;;;;24.10;15.93;;;;;;;1.25;86.05;99104.68;518225;1095;65253;-62
2020/12/13 11:09:31;;;;;;;26.73;15.37;;;;;;;1.29;86.18;99115.78;517549;1095;65475;-69
2020/12/13 11:19:35;;;;;;;31.50;18.83;;;;;;;1.32;86.01;99115.66;517494;1097;65244;-67
2020/12/13 11:29:39;;;;;;;32.77;21.90;;;;;;;1.33;86.08;99120.80;517476;1095;65576;-68
2020/12/13 11:39:43;;;;;;;35.73;21.40;;;;;;;1.34;85.88;99112.14;517244;1095;65286;-67
2020/12/13 11:49:47;;;;;;;31.37;20.53;;;;;;;1.40;86.48;99124.02;517648;1096;65179;-68
2020/12/13 11:59:51;;;;;;;33.47;21.77;;;;;;;1.44;86.09;99117.83;517795;1095;65156;-68
2020/12/13 12:09:55;;;;;;;31.00;19.10;;;;;;;1.40;85.75;99111.91;517594;1095;65156;-69
2020/12/13 12:19:59;;;;;;;31.70;20.40;;;;;;;1.43;85.60;99116.15;517247;1098;65226;-66
2020/12/13 12:30:05;;;;;;;31.10;21.00;;;;;;;1.42;85.79;99111.87;517377;1098;65230;-70
2020/12/13 12:40:09;;;;;;;39.50;25.13;;;;;;;1.58;85.62;99121.69;517669;1095;66048;-72
2020/12/13 12:50:13;;;;;;;37.07;24.37;;;;;;;1.71;85.67;99135.88;517627;1095;65205;-69
2020/12/13 13:00:38;;;;;;;35.73;23.43;;;;;;;1.80;84.97;99156.28;517617;1095;65146;-69
2020/12/13 13:10:42;;;;;;;37.80;24.07;;;;;;;1.81;85.17;99163.14;517575;1090;65179;-68
2020/12/13 13:20:47;;;;;;;32.80;22.13;;;;;;;1.63;85.47;99169.80;508236;1097;10001635;-64
2020/12/13 13:30:51;;;;;;;33.83;21.50;;;;;;;1.47;85.38;99166.05;516648;1095;66204;-63
2020/12/13 13:40:55;;;;;;;34.37;21.07;;;;;;;1.37;85.12;99179.29;516735;1090;65731;-67
2020/12/13 13:50:59;;;;;;;35.90;23.20;;;;;;;1.48;85.07;99183.27;517236;1095;65540;-66
2020/12/13 14:01:04;;;;;;;37.75;24.35;;;;;;;1.55;85.54;99202.85;517037;1096;65179;-67
2020/12/13 14:11:09;;;;;;;38.33;23.87;;;;;;;1.54;85.29;99202.02;516692;1090;65197;-62
2020/12/13 14:21:17;;;;;;;35.65;22.85;;;;;;;1.55;85.79;99213.20;517246;1096;65546;-63
2020/12/13 14:31:21;;;;;;;36.40;22.00;;;;;;;1.52;85.78;99226.25;517069;1095;65230;-65
2020/12/13 14:41:25;;;;;;;30.27;20.17;;;;;;;1.37;85.58;99243.11;516984;1095;65297;-68
2020/12/13 14:51:31;;;;;;;35.25;21.60;;;;;;;1.23;85.61;99249.56;518226;1095;65608;-67
2020/12/13 15:01:36;;;;;;;42.40;26.55;;;;;;;1.16;86.11;99253.26;516497;1095;65217;-67
2020/12/13 15:11:40;;;;;;;30.67;20.13;;;;;;;1.19;85.57;99255.73;517367;1095;65178;-66
2020/12/13 15:21:48;;;;;;;31.67;21.67;;;;;;;1.03;85.64;99233.81;517522;1090;65518;-64
2020/12/13 15:31:54;;;;;;;32.00;20.00;;;;;;;1.24;86.02;99263.36;516661;1097;65156;-63
2020/12/13 15:41:58;;;;;;;34.60;21.93;;;;;;;1.13;85.70;99275.78;516489;1097;65252;-66
2020/12/13 15:52:03;;;;;;;36.67;22.30;;;;;;;1.22;86.08;99270.33;516532;1090;65601;-66
2020/12/13 16:02:07;;;;;;;28.93;19.87;;;;;;;1.11;85.91;99279.26;516818;1097;65234;-65
2020/12/13 16:12:12;;;;;;;35.10;20.87;;;;;;;0.99;85.78;99279.63;517003;1096;65204;-65
2020/12/13 16:22:15;;;;;;;37.10;23.63;;;;;;;0.95;86.13;99289.20;516590;1090;65808;-61
2020/12/13 16:32:19;;;;;;;37.53;24.13;;;;;;;0.98;86.43;99285.66;516719;1095;65324;-68
2020/12/13 16:42:30;;;;;;;35.90;21.70;;;;;;;0.90;86.20;99300.58;516419;1090;65182;-60
2020/12/13 17:03:05;;;;;;;32.20;22.67;;;;;;;0.81;86.41;99306.86;517146;1097;65179;-68
2020/12/13 17:13:09;;;;;;;39.73;20.93;;;;;;;0.79;85.98;99308.62;516047;1090;65198;-70
2020/12/13 17:23:14;;;;;;;36.20;23.10;;;;;;;0.80;86.68;99320.65;516286;1095;65265;-72
2020/12/13 17:33:21;;;;;;;34.30;22.63;;;;;;;0.77;86.22;99334.53;516562;1095;65166;-73
2020/12/13 17:43:26;;;;;;;39.57;25.90;;;;;;;0.83;86.71;99330.92;516325;1090;65174;-71
2020/12/13 17:53:43;;;;;;;37.30;24.43;;;;;;;0.83;86.11;99338.68;516256;1096;65172;-68
2020/12/13 18:03:49;;;;;;;37.00;23.17;;;;;;;0.81;86.85;99345.64;516393;1097;65202;-64
2020/12/13 18:13:53;;;;;;;32.83;20.93;;;;;;;0.79;85.77;99349.97;516566;1093;65258;-69
2020/12/13 18:23:58;;;;;;;39.13;23.47;;;;;;;0.74;85.88;99368.19;517502;1097;65184;-65
2020/12/13 18:34:02;;;;;;;29.83;19.83;;;;;;;0.72;86.34;99363.98;517013;1095;65174;-68
2020/12/13 18:44:06;;;;;;;36.07;22.53;;;;;;;0.60;86.36;99376.34;516833;1090;65329;-68
2020/12/13 18:54:10;;;;;;;36.47;21.07;;;;;;;0.48;86.79;99379.25;516729;1095;65307;-68
2020/12/13 19:04:22;;;;;;;35.50;22.73;;;;;;;0.55;86.66;99397.13;516422;1097;65552;-71
2020/12/13 19:14:27;;;;;;;28.73;19.00;;;;;;;0.57;86.41;99402.23;516973;1096;65147;-67
2020/12/13 19:24:31;;;;;;;27.63;18.47;;;;;;;0.51;86.70;99399.83;516695;1090;65194;-67
2020/12/13 19:34:36;;;;;;;28.55;17.20;;;;;;;0.49;86.95;99415.36;516668;1095;65276;-59
2020/12/13 19:44:40;;;;;;;26.07;18.50;;;;;;;0.42;86.14;99421.59;516479;1090;65158;-60
2020/12/13 19:54:44;;;;;;;32.80;20.25;;;;;;;0.46;86.17;99424.91;516544;1096;65235;-60
2020/12/13 20:04:48;;;;;;;26.95;19.90;;;;;;;0.39;86.50;99419.05;516761;1090;65252;-60
2020/12/13 20:15:17;;;;;;;32.55;20.20;;;;;;;0.38;86.31;99428.56;517262;1090;65790;-61
2020/12/13 21:17:55;;;;;;;31.47;18.57;;;;;;;0.22;86.24;99456.48;516829;1090;65229;-66
2020/12/13 21:49:08;;;;;;;33.90;20.93;;;;;;;0.26;86.40;99472.77;517388;1090;66296;-75
2020/12/13 21:59:24;;;;;;;40.20;22.85;;;;;;;0.30;86.80;99483.88;517069;1090;65214;-71
2020/12/13 22:30:35;;;;;;;38.90;20.27;;;;;;;0.21;87.32;99500.42;519477;1095;65165;-71
2020/12/13 22:40:45;;;;;;;33.43;20.87;;;;;;;0.16;87.27;99497.10;519608;1095;65355;-72
2020/12/13 22:50:52;;;;;;;42.23;23.67;;;;;;;0.20;86.57;99503.89;519727;1095;65153;-71
2020/12/13 23:00:57;;;;;;;38.13;22.90;;;;;;;0.17;86.93;99507.38;519855;1095;65461;-71
2020/12/13 23:11:01;;;;;;;42.05;25.35;;;;;;;0.22;87.11;99518.47;519827;1097;65258;-72
2020/12/13 23:21:05;;;;;;;44.10;24.60;;;;;;;0.20;86.87;99514.22;520111;1095;65294;-72
2020/12/13 23:31:09;;;;;;;40.50;24.70;;;;;;;0.30;86.31;99512.30;519940;1095;65784;-72
2020/12/13 23:41:14;;;;;;;39.73;23.30;;;;;;;0.27;86.72;99515.78;519615;1097;65157;-72
2020/12/13 23:51:18;;;;;;;41.93;22.90;;;;;;;0.26;86.98;99507.17;519630;1097;65246;-63
